Time;durP1;ratioP1;P1;durP2;ratioP2;P2;SDS_P1;SDS_P2;PMS_P1;PMS_P2;Temp;Humidity;BMP_temperature;BMP_pressure;BME280_temperature;BME280_humidity;BME280_pressure;Samples;Min_cycle;Max_cycle;Signal;HPM_P1;HPM_P2
2023/07/10 00:02:17;;;;;;;0.98;0.47;;;;;;;26.97;100.00;101899.81;10437999;28;20117;-80
2023/07/10 00:07:18;;;;;;;0.28;0.17;;;;;;;26.91;100.00;101912.31;10434569;28;20037;-81
2023/07/10 00:12:21;;;;;;;0.10;0.10;;;;;;;26.91;100.00;101919.34;10442388;28;20471;-80
2023/07/10 00:17:23;;;;;;;0.10;0.10;;;;;;;27.36;100.00;101912.84;10441930;28;20076;-80
2023/07/10 00:22:25;;;;;;;0.73;0.40;;;;;;;26.86;100.00;101906.25;10451402;28;20715;-80
2023/07/10 00:27:26;;;;;;;0.55;0.38;;;;;;;26.76;100.00;101912.72;10447950;28;20041;-80
2023/07/10 00:32:28;;;;;;;0.75;0.32;;;;;;;27.45;100.00;101911.72;10453692;28;20055;-80
2023/07/10 00:37:30;;;;;;;0.65;0.50;;;;;;;27.17;100.00;101923.09;10442098;28;20071;-81
2023/07/10 00:42:32;;;;;;;2.22;0.50;;;;;;;27.03;100.00;101926.09;10423071;28;20403;-81
2023/07/10 00:47:37;;;;;;;0.10;0.10;;;;;;;27.05;100.00;101914.56;10450298;28;20608;-81
2023/07/10 00:52:46;;;;;;;0.63;0.63;;;;;;;27.19;100.00;101935.34;10466878;28;20034;-80
2023/07/10 00:57:52;;;;;;;0.70;0.50;;;;;;;26.54;100.00;101933.50;10446714;28;20037;-81
2023/07/10 01:02:54;;;;;;;0.28;0.28;;;;;;;26.73;100.00;101945.31;10433375;28;20103;-81
2023/07/10 01:07:58;;;;;;;1.08;0.68;;;;;;;26.38;100.00;101930.38;10458332;28;20454;-81
2023/07/10 01:13:00;;;;;;;0.40;0.40;;;;;;;26.38;100.00;101922.44;10458327;28;20047;-81
2023/07/10 01:18:02;;;;;;;0.40;0.40;;;;;;;26.83;100.00;101935.44;10463574;28;20036;-80
2023/07/10 01:23:04;;;;;;;0.98;0.43;;;;;;;27.38;100.00;101940.09;10466741;28;20107;-80
2023/07/10 01:28:11;;;;;;;0.60;0.57;;;;;;;26.73;100.00;101942.69;10470770;28;20127;-80
2023/07/10 01:33:17;;;;;;;0.10;0.10;;;;;;;27.28;100.00;101936.00;10442832;28;20055;-80
2023/07/10 01:38:19;;;;;;;0.17;0.17;;;;;;;27.07;100.00;101927.72;10470729;28;20086;-80
2023/07/10 01:43:22;;;;;;;0.47;0.47;;;;;;;27.28;100.00;101920.13;10440093;28;20048;-81
2023/07/10 01:48:27;;;;;;;1.02;0.73;;;;;;;26.57;100.00;101910.50;10446019;28;20072;-80
2023/07/10 01:53:29;;;;;;;0.00;0.00;;;;;;;27.05;100.00;101927.78;10429068;28;20052;-80
2023/07/10 01:58:32;;;;;;;0.57;0.30;;;;;;;26.73;100.00;101923.31;10439824;28;20721;-81
2023/07/10 02:03:33;;;;;;;0.17;0.08;;;;;;;27.40;100.00;101919.78;10443098;28;20152;-80
2023/07/10 02:08:35;;;;;;;0.52;0.38;;;;;;;27.20;100.00;101938.84;10463819;28;20053;-80
2023/07/10 02:13:37;;;;;;;1.08;0.68;;;;;;;26.63;100.00;101949.13;10471470;28;20045;-81
2023/07/10 02:18:39;;;;;;;0.10;0.10;;;;;;;27.34;100.00;101946.41;10457142;28;20449;-80
2023/07/10 02:23:40;;;;;;;0.28;0.28;;;;;;;26.60;100.00;101939.50;10443008;28;20151;-80
2023/07/10 02:28:43;;;;;;;0.10;0.10;;;;;;;27.26;100.00;101941.31;10455336;28;20053;-80
2023/07/10 02:33:45;;;;;;;0.10;0.10;;;;;;;27.00;100.00;101944.66;10477501;28;20060;-80
2023/07/10 02:38:47;;;;;;;0.60;0.40;;;;;;;26.43;100.00;101962.81;10444021;28;20052;-81
2023/07/10 02:43:48;;;;;;;0.00;0.00;;;;;;;27.08;100.00;101958.56;10438699;28;20045;-80
2023/07/10 02:48:52;;;;;;;0.20;0.20;;;;;;;27.15;100.00;101952.19;10437868;28;20048;-81
2023/07/10 02:53:53;;;;;;;0.30;0.30;;;;;;;27.42;100.00;101949.75;10440180;28;20496;-80
2023/07/10 02:58:55;;;;;;;0.20;0.08;;;;;;;27.31;100.00;101959.72;10420880;28;20049;-80
2023/07/10 03:03:57;;;;;;;0.08;0.08;;;;;;;26.87;100.00;101962.66;10456911;28;20663;-80
2023/07/10 03:08:58;;;;;;;0.20;0.15;;;;;;;27.70;100.00;101964.81;10459303;28;20047;-80
2023/07/10 03:14:02;;;;;;;0.10;0.10;;;;;;;27.76;100.00;101969.91;10455282;28;20045;-80
2023/07/10 03:19:04;;;;;;;0.10;0.10;;;;;;;27.48;100.00;101970.72;10457493;28;20076;-80
2023/07/10 03:24:06;;;;;;;0.00;0.00;;;;;;;27.49;100.00;101972.47;10433081;28;20079;-80
2023/07/10 03:29:11;;;;;;;0.15;0.10;;;;;;;27.52;100.00;101977.66;10455118;28;20396;-80
2023/07/10 03:34:14;;;;;;;0.32;0.10;;;;;;;27.73;100.00;101975.31;10437261;28;20041;-80
2023/07/10 03:39:15;;;;;;;0.20;0.10;;;;;;;27.36;100.00;101982.50;10469332;28;20060;-80
2023/07/10 03:44:17;;;;;;;0.00;0.00;;;;;;;27.38;100.00;101977.16;10439005;28;20048;-80
2023/07/10 03:49:19;;;;;;;0.10;0.10;;;;;;;27.55;100.00;101988.16;10455512;28;20055;-80
2023/07/10 03:54:21;;;;;;;0.45;0.00;;;;;;;27.26;100.00;101990.72;10435731;28;20515;-80
2023/07/10 03:59:23;;;;;;;0.00;0.00;;;;;;;27.19;100.00;101995.31;10457038;28;20045;-80
2023/07/10 04:04:24;;;;;;;0.10;0.05;;;;;;;26.67;100.00;102016.00;10460053;28;20483;-80
2023/07/10 04:09:27;;;;;;;0.55;0.30;;;;;;;26.84;100.00;102016.50;10454259;28;20053;-81
2023/07/10 04:14:29;;;;;;;0.00;0.00;;;;;;;26.79;100.00;102018.34;10477678;28;20044;-80
2023/07/10 04:19:30;;;;;;;0.00;0.00;;;;;;;26.37;100.00;102026.38;10454057;28;20048;-80
2023/07/10 04:24:32;;;;;;;0.10;0.10;;;;;;;26.82;100.00;102013.00;10448217;28;20041;-80
2023/07/10 04:29:37;;;;;;;0.47;0.25;;;;;;;26.84;100.00;102019.13;10451629;28;20041;-80
2023/07/10 04:34:38;;;;;;;0.38;0.38;;;;;;;27.26;100.00;102017.19;10462537;28;20068;-80
2023/07/10 04:39:40;;;;;;;0.10;0.10;;;;;;;27.00;100.00;102027.53;10442945;28;20053;-80
2023/07/10 04:44:45;;;;;;;5.93;0.47;;;;;;;26.58;100.00;102031.16;10450354;28;20041;-80
2023/07/10 04:49:46;;;;;;;0.45;0.17;;;;;;;26.04;100.00;102034.97;10436387;28;20045;-81
2023/07/10 04:54:48;;;;;;;0.20;0.10;;;;;;;26.05;100.00;102041.13;10448315;28;20037;-81
2023/07/10 04:59:50;;;;;;;0.08;0.08;;;;;;;26.11;100.00;102056.84;10435614;28;20368;-81
2023/07/10 05:04:51;;;;;;;0.75;0.20;;;;;;;26.20;100.00;102045.25;10452431;28;20037;-80
2023/07/10 05:09:53;;;;;;;0.00;0.00;;;;;;;25.81;100.00;102041.59;10454625;28;20053;-81
2023/07/10 05:14:55;;;;;;;0.20;0.10;;;;;;;25.90;100.00;102029.13;10466903;28;20037;-80
2023/07/10 05:19:56;;;;;;;0.05;0.03;;;;;;;26.14;100.00;102043.59;10427771;28;20111;-80
2023/07/10 05:24:58;;;;;;;0.00;0.00;;;;;;;26.04;100.00;102044.66;10448527;28;20037;-80
2023/07/10 05:30:04;;;;;;;0.20;0.10;;;;;;;25.88;100.00;102044.97;10448881;28;20049;-81
2023/07/10 05:35:06;;;;;;;0.32;0.22;;;;;;;26.08;100.00;102046.38;10441292;28;20072;-80
2023/07/10 05:40:08;;;;;;;0.10;0.10;;;;;;;26.17;100.00;102051.47;10432682;28;20045;-80
2023/07/10 05:45:10;;;;;;;0.90;0.30;;;;;;;25.63;100.00;102050.75;10448433;28;20037;-81
2023/07/10 05:50:11;;;;;;;0.22;0.17;;;;;;;25.45;100.00;102072.19;10463510;28;20041;-81
2023/07/10 05:55:13;;;;;;;0.00;0.00;;;;;;;25.76;100.00;102066.34;10441966;28;20045;-81
2023/07/10 06:00:15;;;;;;;0.60;0.60;;;;;;;25.49;100.00;102073.88;10440421;28;20041;-81
2023/07/10 06:05:17;;;;;;;0.20;0.10;;;;;;;25.61;100.00;102068.38;10457096;28;20051;-81
2023/07/10 06:10:18;;;;;;;0.10;0.10;;;;;;;25.73;100.00;102064.63;10440251;28;20491;-81
2023/07/10 06:15:20;;;;;;;0.17;0.17;;;;;;;26.37;100.00;102073.94;10442125;28;20068;-80
2023/07/10 06:20:22;;;;;;;0.00;0.00;;;;;;;26.49;100.00;102078.94;10464847;28;20049;-80
2023/07/10 06:25:24;;;;;;;0.00;0.00;;;;;;;26.17;100.00;102072.59;10456712;28;20544;-80
2023/07/10 06:30:26;;;;;;;0.00;0.00;;;;;;;26.34;100.00;102079.28;10470130;28;20045;-80
2023/07/10 06:35:27;;;;;;;0.00;0.00;;;;;;;26.54;100.00;102077.06;10458436;28;20052;-80
2023/07/10 06:40:29;;;;;;;0.00;0.00;;;;;;;26.88;100.00;102075.44;10469170;28;20296;-80
2023/07/10 06:45:30;;;;;;;0.10;0.10;;;;;;;27.07;100.00;102073.19;10454475;28;20503;-81
2023/07/10 06:50:32;;;;;;;0.00;0.00;;;;;;;26.61;100.00;102077.78;10437281;28;20044;-81
2023/07/10 06:55:34;;;;;;;0.17;0.00;;;;;;;26.75;100.00;102077.47;10455365;28;20041;-81
2023/07/10 07:00:35;;;;;;;0.08;0.00;;;;;;;26.72;100.00;102077.53;10470902;28;20076;-81
2023/07/10 07:05:41;;;;;;;0.00;0.00;;;;;;;27.15;100.00;102073.88;10473426;28;20095;-82
2023/07/10 07:10:44;;;;;;;0.10;0.10;;;;;;;27.51;100.00;102063.28;10442707;28;20041;-81
2023/07/10 07:15:55;;;;;;;0.35;0.08;;;;;;;27.94;100.00;102076.22;10457597;28;20051;-81
2023/07/10 07:20:58;;;;;;;0.00;0.00;;;;;;;28.10;100.00;102074.03;10450724;28;20487;-82
2023/07/10 07:25:59;;;;;;;0.00;0.00;;;;;;;28.54;100.00;102078.91;10471690;28;20052;-82
2023/07/10 07:31:03;;;;;;;0.10;0.10;;;;;;;29.16;100.00;102082.22;10445147;28;20135;-82
2023/07/10 07:36:04;;;;;;;0.00;0.00;;;;;;;29.07;100.00;102094.91;10486110;28;20041;-82
2023/07/10 07:41:07;;;;;;;0.10;0.03;;;;;;;29.07;100.00;102100.19;10489444;28;20049;-82
2023/07/10 07:46:09;;;;;;;1.40;0.20;;;;;;;29.44;100.00;102098.09;10471996;28;20115;-82
2023/07/10 07:51:10;;;;;;;0.20;0.10;;;;;;;28.77;100.00;102107.34;10468830;28;20136;-82
2023/07/10 07:56:12;;;;;;;0.10;0.10;;;;;;;29.17;100.00;102099.88;10459837;28;20088;-85
2023/07/10 08:01:17;;;;;;;3.35;0.28;;;;;;;29.72;100.00;102102.41;10458053;28;20049;-83
2023/07/10 08:06:19;;;;;;;0.47;0.47;;;;;;;29.82;100.00;102102.97;10429167;28;20045;-84
2023/07/10 08:11:21;;;;;;;0.60;0.10;;;;;;;30.33;100.00;102099.31;10440475;28;20435;-83
2023/07/10 08:16:22;;;;;;;0.10;0.10;;;;;;;29.56;100.00;102102.97;10457956;28;20041;-83
2023/07/10 08:21:24;;;;;;;0.00;0.00;;;;;;;29.94;100.00;102097.22;10456274;28;20051;-83
2023/07/10 08:26:26;;;;;;;0.10;0.08;;;;;;;29.99;100.00;102095.25;10472287;28;20048;-83
2023/07/10 08:31:29;;;;;;;0.40;0.35;;;;;;;30.09;100.00;102092.25;10441511;28;20143;-83
2023/07/10 08:36:30;;;;;;;0.10;0.03;;;;;;;30.14;100.00;102091.16;10440126;28;20051;-82
2023/07/10 08:41:32;;;;;;;0.40;0.22;;;;;;;30.00;100.00;102097.00;10424614;28;20052;-83
2023/07/10 08:46:34;;;;;;;0.10;0.10;;;;;;;30.16;100.00;102097.28;10458015;28;20443;-83
2023/07/10 08:51:49;;;;;;;0.00;0.00;;;;;;;29.98;100.00;102088.22;10456544;28;20052;-82
2023/07/10 08:57:29;;;;;;;0.00;0.00;;;;;;;30.60;100.00;102090.34;10440672;28;20203;-82
2023/07/10 09:02:36;;;;;;;;;;;;;;;30.18;100.00;102089.25;10428047;28;20051;-82
2023/07/10 09:07:42;;;;;;;7.13;0.25;;;;;;;30.84;100.00;102086.66;10473270;28;19928;-82
2023/07/10 09:12:51;;;;;;;0.00;0.00;;;;;;;30.42;100.00;102097.22;10440443;28;20096;-82
2023/07/10 09:17:55;;;;;;;0.10;0.10;;;;;;;30.46;100.00;102098.81;10443388;28;20052;-83
2023/07/10 09:23:00;;;;;;;0.65;0.10;;;;;;;30.93;100.00;102092.53;10459025;28;20503;-83
2023/07/10 09:28:02;;;;;;;0.10;0.10;;;;;;;30.80;100.00;102093.03;10446594;28;20080;-82
2023/07/10 09:33:06;;;;;;;0.10;0.00;;;;;;;30.68;100.00;102091.75;10467801;28;20051;-82
2023/07/10 09:38:13;;;;;;;0.10;0.10;;;;;;;30.94;100.00;102083.63;10481446;28;20076;-82
2023/07/10 09:43:16;;;;;;;0.00;0.00;;;;;;;30.64;100.00;102097.25;10448128;28;20048;-82
2023/07/10 09:48:25;;;;;;;0.00;0.00;;;;;;;30.68;100.00;102096.22;10447535;28;20045;-81
2023/07/10 09:53:33;;;;;;;0.00;0.00;;;;;;;30.20;100.00;102103.34;10449096;28;20475;-81
2023/07/10 09:58:45;;;;;;;0.22;0.13;;;;;;;30.95;100.00;102094.19;10447896;28;20049;-81
2023/07/10 10:03:51;;;;;;;0.20;0.10;;;;;;;30.52;100.00;102093.28;10466217;28;20087;-82
2023/07/10 10:08:54;;;;;;;0.00;0.00;;;;;;;31.12;100.00;102092.66;10464700;28;20513;-82
2023/07/10 10:14:00;;;;;;;0.15;0.10;;;;;;;30.77;100.00;102082.50;10463532;28;20052;-81
2023/07/10 10:19:12;;;;;;;0.40;0.20;;;;;;;31.20;100.00;102085.22;10449364;28;20048;-81
2023/07/10 10:24:14;;;;;;;0.00;0.00;;;;;;;31.55;100.00;102076.63;10463090;28;20539;-81
2023/07/10 10:29:30;;;;;;;0.38;0.30;;;;;;;31.00;100.00;102094.88;10446599;28;20139;-82
2023/07/10 10:34:37;;;;;;;0.00;0.00;;;;;;;31.21;100.00;102086.94;10463986;28;20069;-82
2023/07/10 10:40:13;;;;;;;0.03;0.00;;;;;;;32.03;99.48;102093.13;10461201;28;20151;-81
2023/07/10 10:45:38;;;;;;;0.43;0.30;;;;;;;31.43;96.70;102091.34;10431743;28;20143;-82
2023/07/10 10:50:58;;;;;;;0.20;0.20;;;;;;;31.32;98.17;102094.47;10461835;28;20506;-82
2023/07/10 10:56:22;;;;;;;0.10;0.10;;;;;;;31.59;95.09;102087.06;10443416;28;20096;-82
2023/07/10 11:01:27;;;;;;;0.00;0.00;;;;;;;31.36;99.20;102100.53;10476595;28;20048;-82
2023/07/10 11:06:43;;;;;;;0.20;0.10;;;;;;;31.04;91.76;102108.94;10475824;28;20119;-81
2023/07/10 11:11:46;;;;;;;0.00;0.00;;;;;;;31.45;100.00;102100.13;10459824;28;20045;-82
2023/07/10 11:16:48;;;;;;;0.00;0.00;;;;;;;31.62;95.36;102091.38;10443303;28;20041;-82
2023/07/10 11:21:51;;;;;;;0.10;0.10;;;;;;;32.18;94.07;102089.75;10459703;28;20049;-81
2023/07/10 11:26:59;;;;;;;0.20;0.15;;;;;;;32.09;95.79;102090.19;10458531;28;20049;-81
2023/07/10 11:32:09;;;;;;;0.30;0.30;;;;;;;31.50;94.23;102108.78;10458717;28;20053;-81
2023/07/10 11:37:49;;;;;;;0.10;0.10;;;;;;;31.53;94.76;102098.00;10459662;28;20049;-81
2023/07/10 11:42:50;;;;;;;0.20;0.20;;;;;;;32.12;99.02;102093.56;10347531;28;20440;-81
2023/07/10 11:47:52;;;;;;;0.10;0.10;;;;;;;32.51;97.63;102097.09;10460977;28;20041;-81
2023/07/10 11:53:06;;;;;;;0.10;0.10;;;;;;;32.18;93.56;102092.41;10442270;28;20099;-82
2023/07/10 11:58:47;;;;;;;0.00;0.00;;;;;;;32.42;98.88;102093.09;10459733;28;20076;-82
2023/07/10 12:03:48;;;;;;;0.57;0.57;;;;;;;31.94;96.87;102100.63;10290297;28;20137;-83
2023/07/10 12:08:52;;;;;;;0.00;0.00;;;;;;;32.78;92.35;102088.72;10390396;28;20141;-83
2023/07/10 12:13:53;;;;;;;0.30;0.10;;;;;;;31.98;92.54;102092.50;10436908;28;20124;-84
2023/07/10 12:19:03;;;;;;;0.03;0.00;;;;;;;32.03;95.97;102094.00;10435636;28;20577;-83
2023/07/10 12:24:13;;;;;;;1.08;0.13;;;;;;;32.58;93.47;102090.53;10419222;28;20091;-84
2023/07/10 12:29:15;;;;;;;1.02;0.90;;;;;;;32.45;92.33;102084.06;10451599;28;20136;-84
2023/07/10 12:34:28;;;;;;;0.30;0.30;;;;;;;32.36;88.43;102089.84;10437949;28;20057;-84
2023/07/10 12:39:31;;;;;;;0.05;0.05;;;;;;;32.16;94.45;102085.44;10467705;28;20044;-83
2023/07/10 12:44:43;;;;;;;2.10;1.90;;;;;;;31.39;96.38;102089.75;10450646;28;20120;-84
2023/07/10 12:49:56;;;;;;;0.05;0.05;;;;;;;31.82;90.50;102087.88;10468004;28;20419;-83
2023/07/10 12:54:58;;;;;;;0.17;0.10;;;;;;;31.81;92.44;102086.13;10452336;28;20510;-85
2023/07/10 13:00:06;;;;;;;0.00;0.00;;;;;;;31.83;95.89;102078.06;10417444;28;20073;-83
2023/07/10 13:05:29;;;;;;;0.00;0.00;;;;;;;31.96;94.06;102066.78;10428736;28;20423;-84
2023/07/10 13:10:43;;;;;;;1.58;0.82;;;;;;;30.86;95.65;102086.63;10436788;28;20056;-84
2023/07/10 13:15:46;;;;;;;0.00;0.00;;;;;;;30.67;98.55;102087.34;10442026;28;20041;-83
2023/07/10 13:20:47;;;;;;;0.00;0.00;;;;;;;31.11;97.26;102086.47;10444203;28;20048;-83
2023/07/10 13:25:49;;;;;;;0.00;0.00;;;;;;;30.29;96.91;102080.88;10436058;28;20036;-80
2023/07/10 13:30:51;;;;;;;0.10;0.05;;;;;;;30.78;97.32;102089.56;10422420;28;20059;-80
2023/07/10 13:35:55;;;;;;;0.03;0.03;;;;;;;30.70;95.49;102076.59;10445003;28;20037;-80
2023/07/10 13:40:57;;;;;;;1.08;0.47;;;;;;;31.46;95.46;102075.25;10434380;28;20040;-80
2023/07/10 13:46:04;;;;;;;0.00;0.00;;;;;;;30.88;96.48;102065.25;10442560;28;20785;-80
2023/07/10 13:51:12;;;;;;;0.40;0.20;;;;;;;31.20;96.02;102053.28;10430398;28;20530;-80
2023/07/10 13:56:25;;;;;;;0.00;0.00;;;;;;;31.31;89.87;102056.31;10463137;28;20043;-80
2023/07/10 14:01:26;;;;;;;0.00;0.00;;;;;;;31.64;96.80;102057.56;10446868;28;20160;-80
2023/07/10 14:06:30;;;;;;;0.55;0.20;;;;;;;31.39;95.63;102057.81;10454743;28;20558;-81
2023/07/10 14:11:33;;;;;;;0.38;0.20;;;;;;;31.30;96.17;102053.72;10447980;28;20048;-81
2023/07/10 14:16:34;;;;;;;0.28;0.15;;;;;;;31.28;93.23;102051.13;10448631;28;20037;-80
2023/07/10 14:21:36;;;;;;;0.00;0.00;;;;;;;31.58;92.78;102053.38;10461622;28;20111;-80
2023/07/10 14:26:38;;;;;;;0.22;0.17;;;;;;;32.28;96.40;102048.41;10457268;28;20045;-80
2023/07/10 14:31:40;;;;;;;0.10;0.00;;;;;;;31.83;93.06;102052.28;10463829;28;20041;-80
2023/07/10 14:36:45;;;;;;;0.15;0.15;;;;;;;32.10;90.03;102043.94;10456437;28;20044;-80
2023/07/10 14:41:47;;;;;;;0.10;0.10;;;;;;;31.83;86.33;102041.63;10455011;28;20045;-80
2023/07/10 14:46:48;;;;;;;0.00;0.00;;;;;;;32.16;87.55;102038.31;10454436;28;20053;-79
2023/07/10 14:52:16;;;;;;;0.23;0.10;;;;;;;31.32;91.87;102041.22;10454838;28;20053;-80
2023/07/10 14:57:38;;;;;;;0.20;0.05;;;;;;;31.46;89.49;102033.47;10433972;28;20045;-80
2023/07/10 15:02:40;;;;;;;0.20;0.10;;;;;;;31.76;92.37;102030.38;10451823;28;20037;-80
2023/07/10 15:07:43;;;;;;;0.00;0.00;;;;;;;31.46;83.23;102024.66;10463104;28;20041;-82
2023/07/10 15:12:45;;;;;;;1.13;0.28;;;;;;;31.54;86.34;102014.47;10437294;28;20037;-80
2023/07/10 15:17:47;;;;;;;0.88;0.38;;;;;;;31.42;90.71;101999.06;10454597;28;20507;-80
2023/07/10 15:22:49;;;;;;;0.20;0.20;;;;;;;31.88;86.60;101996.09;10435609;28;20103;-80
2023/07/10 15:27:51;;;;;;;0.00;0.00;;;;;;;31.42;88.99;101999.06;10444625;28;20045;-81
2023/07/10 15:32:56;;;;;;;0.00;0.00;;;;;;;32.48;89.30;101995.91;10457824;28;20376;-81
2023/07/10 15:37:57;;;;;;;0.05;0.03;;;;;;;32.06;85.34;101999.69;10453247;28;20044;-81
2023/07/10 15:42:59;;;;;;;0.32;0.22;;;;;;;31.99;87.41;101990.25;10441045;28;20053;-81
2023/07/10 15:48:02;;;;;;;0.20;0.08;;;;;;;31.49;84.67;101995.19;10445526;28;20046;-81
2023/07/10 15:53:04;;;;;;;0.38;0.38;;;;;;;31.85;91.26;101986.47;10434915;28;20076;-80
2023/07/10 15:58:18;;;;;;;0.00;0.00;;;;;;;30.37;89.25;101985.75;10428831;28;20489;-82
2023/07/10 16:03:29;;;;;;;0.43;0.10;;;;;;;31.12;90.91;101975.56;10443210;28;20043;-82
2023/07/10 16:08:36;;;;;;;0.00;0.00;;;;;;;31.08;89.03;101963.28;10431759;28;20072;-83
2023/07/10 16:13:38;;;;;;;0.20;0.10;;;;;;;30.64;93.47;101975.75;10432443;28;20446;-82
2023/07/10 16:18:40;;;;;;;0.00;0.00;;;;;;;30.76;94.92;101968.22;10429169;28;20045;-82
2023/07/10 16:23:43;;;;;;;0.13;0.03;;;;;;;31.13;88.95;101963.97;10451262;28;20780;-82
2023/07/10 16:28:45;;;;;;;0.00;0.00;;;;;;;31.05;91.90;101969.63;10434444;28;20037;-82
2023/07/10 16:33:48;;;;;;;0.30;0.30;;;;;;;31.59;91.73;101953.03;10417228;28;20045;-82
2023/07/10 16:38:50;;;;;;;0.00;0.00;;;;;;;31.73;87.83;101952.41;10433229;28;20036;-81
2023/07/10 16:43:51;;;;;;;0.00;0.00;;;;;;;31.69;87.03;101949.03;10451233;28;20656;-81
2023/07/10 16:48:53;;;;;;;0.10;0.00;;;;;;;31.83;89.94;101939.50;10443354;28;20037;-82
2023/07/10 16:53:56;;;;;;;0.00;0.00;;;;;;;32.05;88.43;101944.69;10466017;28;20055;-82
2023/07/10 17:05:51;;;;;;;0.00;0.00;;;;;;;32.21;86.95;101932.34;10438643;28;20398;-82
2023/07/10 17:10:56;;;;;;;0.20;0.20;;;;;;;32.59;88.78;101932.19;10456287;28;20045;-82
2023/07/10 17:15:58;;;;;;;0.20;0.10;;;;;;;31.98;88.71;101927.25;10433989;28;20107;-82
2023/07/10 17:21:03;;;;;;;1.85;0.63;;;;;;;32.31;86.36;101924.75;10433291;28;20506;-82
2023/07/10 17:26:05;;;;;;;0.00;0.00;;;;;;;31.98;89.91;101928.13;10430889;28;20099;-82
2023/07/10 17:31:13;;;;;;;0.00;0.00;;;;;;;32.62;88.83;101925.00;10449824;28;20151;-82
2023/07/10 17:36:16;;;;;;;0.00;0.00;;;;;;;32.48;86.27;101915.91;10450676;28;20515;-82
2023/07/10 17:41:21;;;;;;;0.00;0.00;;;;;;;32.30;86.76;101916.81;10449568;28;20049;-82
2023/07/10 17:46:23;;;;;;;0.03;0.00;;;;;;;31.80;91.71;101913.88;10439359;28;20056;-82
2023/07/10 17:51:34;;;;;;;0.00;0.00;;;;;;;31.39;90.00;101914.88;10458307;28;20049;-82
2023/07/10 17:56:35;;;;;;;0.20;0.03;;;;;;;32.53;92.07;101908.53;10472328;28;20037;-82
2023/07/10 18:01:38;;;;;;;0.00;0.00;;;;;;;31.90;90.50;101920.50;10451147;28;20574;-82
2023/07/10 18:06:39;;;;;;;0.00;0.00;;;;;;;32.49;95.19;101908.75;10467491;28;20784;-82
2023/07/10 18:11:41;;;;;;;0.00;0.00;;;;;;;31.68;97.39;101904.69;10478940;28;20053;-82
2023/07/10 18:16:43;;;;;;;0.00;0.00;;;;;;;31.86;100.00;101908.25;10447319;28;20060;-82
2023/07/10 18:21:48;;;;;;;0.00;0.00;;;;;;;31.40;100.00;101899.75;10463038;28;20124;-82
2023/07/10 18:26:50;;;;;;;0.00;0.00;;;;;;;30.77;100.00;101890.16;10442958;28;20049;-82
2023/07/10 18:31:52;;;;;;;0.00;0.00;;;;;;;31.08;100.00;101880.78;10458134;28;20051;-82
2023/07/10 18:36:54;;;;;;;0.00;0.00;;;;;;;30.93;97.84;101891.19;10473582;28;20091;-81
2023/07/10 18:41:57;;;;;;;0.00;0.00;;;;;;;30.94;97.30;101887.56;10476912;28;20040;-82
2023/07/10 18:46:59;;;;;;;0.00;0.00;;;;;;;30.68;100.00;101892.28;10467339;28;20055;-81
2023/07/10 18:52:00;;;;;;;0.00;0.00;;;;;;;30.61;100.00;101890.81;10440287;28;20049;-81
2023/07/10 18:57:02;;;;;;;0.00;0.00;;;;;;;30.09;100.00;101887.66;10429817;28;20076;-81
2023/07/10 19:02:04;;;;;;;0.20;0.20;;;;;;;29.92;100.00;101878.59;10452755;28;20052;-81
2023/07/10 19:07:12;;;;;;;0.00;0.00;;;;;;;29.97;100.00;101879.28;10458621;28;20384;-81
2023/07/10 19:12:15;;;;;;;0.20;0.20;;;;;;;29.64;100.00;101882.31;10438576;28;20045;-81
2023/07/10 19:17:19;;;;;;;0.00;0.00;;;;;;;29.98;100.00;101873.00;10458369;28;20049;-81
2023/07/10 19:22:21;;;;;;;0.00;0.00;;;;;;;29.27;100.00;101878.38;10475604;28;20044;-81
2023/07/10 19:27:22;;;;;;;0.10;0.08;;;;;;;29.13;100.00;101870.94;10439389;28;20115;-81
2023/07/10 19:32:24;;;;;;;0.00;0.00;;;;;;;29.18;100.00;101868.09;10444145;28;20052;-81
2023/07/10 19:37:27;;;;;;;0.00;0.00;;;;;;;28.82;100.00;101856.13;10420662;28;20364;-81
2023/07/10 19:42:28;;;;;;;0.28;0.13;;;;;;;28.29;100.00;101854.41;10470761;28;20049;-81
2023/07/10 19:47:30;;;;;;;0.03;0.03;;;;;;;28.79;100.00;101856.25;10472842;28;20116;-81
2023/07/10 19:52:32;;;;;;;0.00;0.00;;;;;;;28.57;100.00;101848.16;10457905;28;20079;-81
2023/07/10 19:57:33;;;;;;;0.00;0.00;;;;;;;28.06;100.00;101845.44;10436247;28;20448;-81
2023/07/10 20:02:35;;;;;;;0.00;0.00;;;;;;;27.65;100.00;101855.56;10452657;28;20055;-81
2023/07/10 20:07:37;;;;;;;0.00;0.00;;;;;;;27.32;100.00;101852.97;10435796;28;20132;-81
2023/07/10 20:12:39;;;;;;;0.00;0.00;;;;;;;27.31;100.00;101841.53;10441223;28;20049;-81
2023/07/10 20:17:45;;;;;;;0.22;0.13;;;;;;;27.92;100.00;101847.66;10456381;28;20047;-81
2023/07/10 20:22:47;;;;;;;0.00;0.00;;;;;;;27.46;100.00;101834.09;10469076;28;20045;-81
2023/07/10 20:27:49;;;;;;;0.10;0.10;;;;;;;26.98;100.00;101833.66;10455376;28;20064;-81
2023/07/10 20:32:51;;;;;;;0.00;0.00;;;;;;;27.46;100.00;101834.94;10467883;28;20503;-81
2023/07/10 20:37:54;;;;;;;0.20;0.05;;;;;;;26.98;100.00;101830.16;10436289;28;20033;-81
2023/07/10 20:42:56;;;;;;;0.10;0.10;;;;;;;26.98;100.00;101825.72;10451647;28;20052;-81
2023/07/10 20:47:59;;;;;;;0.98;0.40;;;;;;;26.59;100.00;101821.50;10455921;28;20064;-79
2023/07/10 20:53:01;;;;;;;0.10;0.00;;;;;;;26.66;100.00;101813.38;10451042;28;20068;-79
2023/07/10 20:58:12;;;;;;;0.00;0.00;;;;;;;26.87;100.00;101804.88;10437923;28;20132;-79
2023/07/10 21:03:26;;;;;;;0.52;0.40;;;;;;;26.66;100.00;101805.47;10431410;28;20048;-79
2023/07/10 21:08:32;;;;;;;0.00;0.00;;;;;;;26.94;100.00;101804.72;10441589;28;20041;-79
2023/07/10 21:13:33;;;;;;;0.00;0.00;;;;;;;26.75;100.00;101798.16;10463722;28;20057;-79
2023/07/10 21:18:35;;;;;;;0.10;0.10;;;;;;;26.82;100.00;101793.59;10467437;28;20132;-79
2023/07/10 21:23:37;;;;;;;0.03;0.03;;;;;;;26.64;100.00;101794.94;10442789;28;20140;-79
2023/07/10 21:28:45;;;;;;;0.60;0.22;;;;;;;26.59;100.00;101795.06;10442817;28;20119;-79
2023/07/10 21:33:47;;;;;;;0.00;0.00;;;;;;;26.55;100.00;101793.38;10450896;28;20044;-79
2023/07/10 21:38:52;;;;;;;0.30;0.17;;;;;;;26.63;100.00;101787.03;10456060;28;20483;-79
2023/07/10 21:43:55;;;;;;;0.15;0.15;;;;;;;26.48;100.00;101786.53;10454501;28;20119;-79
2023/07/10 21:48:58;;;;;;;0.10;0.10;;;;;;;26.55;100.00;101785.47;10441521;28;20045;-79
2023/07/10 21:53:59;;;;;;;0.10;0.10;;;;;;;26.00;100.00;101774.53;10458291;28;20127;-79
2023/07/10 21:59:03;;;;;;;0.00;0.00;;;;;;;26.40;100.00;101777.94;10441356;28;20056;-79
2023/07/10 22:04:08;;;;;;;0.40;0.30;;;;;;;26.51;100.00;101770.63;10453734;28;20033;-79
2023/07/10 22:09:12;;;;;;;0.00;0.00;;;;;;;26.49;100.00;101769.78;10451033;28;20041;-79
2023/07/10 22:14:15;;;;;;;0.05;0.03;;;;;;;25.92;100.00;101761.56;10451660;28;20048;-79
2023/07/10 22:19:17;;;;;;;0.00;0.00;;;;;;;26.43;100.00;101762.91;10440901;28;20546;-79
2023/07/10 22:24:20;;;;;;;0.10;0.10;;;;;;;26.07;100.00;101760.31;10455527;28;20041;-79
2023/07/10 22:29:21;;;;;;;0.10;0.10;;;;;;;26.24;100.00;101767.81;10457117;28;20041;-79
2023/07/10 22:34:23;;;;;;;0.00;0.00;;;;;;;25.95;100.00;101761.44;10470596;28;20499;-79
2023/07/10 22:39:24;;;;;;;0.00;0.00;;;;;;;26.05;100.00;101761.22;10436260;28;20493;-79
2023/07/10 22:44:51;;;;;;;0.32;0.20;;;;;;;25.88;100.00;101759.88;10472659;28;20045;-79
2023/07/10 22:49:54;;;;;;;0.28;0.10;;;;;;;26.04;100.00;101755.09;10431521;28;20037;-79
2023/07/10 22:54:55;;;;;;;0.00;0.00;;;;;;;26.09;100.00;101757.66;10456739;28;20859;-79
2023/07/10 22:59:57;;;;;;;0.00;0.00;;;;;;;26.07;100.00;101743.59;10454571;28;20087;-79
2023/07/10 23:04:59;;;;;;;0.32;0.00;;;;;;;25.77;100.00;101746.09;10436463;28;20040;-79
2023/07/10 23:10:00;;;;;;;0.00;0.00;;;;;;;25.42;100.00;101746.03;10456983;28;20044;-79
2023/07/10 23:15:02;;;;;;;0.00;0.00;;;;;;;25.54;100.00;101734.31;10456618;28;20080;-79